Terminal Aerodrome Forecast
Issued by NWS

Home | Current Version | Previous Version | Text Only | Print | Product List | Glossary On
Versions: 1 2 3 4 5 6 7 8 9 10 11 12 13 14 15 16
000
FTUS42 KTBW 231100
TAFRSW
TAF
KRSW 231139Z 2312/2412 13008KT P6SM FEW005 SCT015
      TEMPO 2312/2314 BKN015
     FM231400 15014G22KT P6SM SCT015 BKN030
     FM231800 18015G25KT P6SM SCT035 SCT250
     FM232300 17008KT P6SM SCT030 BKN250
     FM240300 16005KT 6SM BR SCT010 BKN250
     FM240700 VRB03KT 3SM BR SCT005 BKN010=

USA.gov is the U.S. government's official web portal to all federal, state and local government web resources and services.